createdAt,value
2022-10-10T00:00:47.842Z,11.60
2022-10-10T00:03:14.617Z,11.60
2022-10-10T00:05:41.370Z,11.60
2022-10-10T00:08:07.981Z,11.60
2022-10-10T00:10:34.594Z,11.60
2022-10-10T00:13:01.417Z,11.60
2022-10-10T00:15:28.394Z,11.70
2022-10-10T00:17:55.122Z,12.80
2022-10-10T00:20:22.122Z,11.70
2022-10-10T00:22:49.233Z,11.70
2022-10-10T00:25:15.929Z,11.80
2022-10-10T00:27:42.517Z,11.80
2022-10-10T00:30:09.712Z,11.90
2022-10-10T00:32:36.691Z,11.90
2022-10-10T00:35:03.823Z,11.90
2022-10-10T00:37:30.407Z,11.90
2022-10-10T00:39:56.989Z,11.80
2022-10-10T00:42:23.546Z,11.80
2022-10-10T00:45:08.946Z,11.90
2022-10-10T00:47:35.503Z,11.90
2022-10-10T00:50:02.069Z,11.90
2022-10-10T00:52:28.658Z,11.90
2022-10-10T00:54:55.360Z,12.00
2022-10-10T00:57:21.918Z,12.00
2022-10-10T00:59:48.885Z,12.00
2022-10-10T01:02:15.459Z,12.00
2022-10-10T01:04:45.658Z,12.00
2022-10-10T01:07:14.735Z,12.00
2022-10-10T01:09:42.281Z,12.00
2022-10-10T01:12:26.821Z,12.00
2022-10-10T01:14:56.179Z,12.00
2022-10-10T01:17:28.843Z,11.80
2022-10-10T01:20:10.126Z,11.80
2022-10-10T01:22:36.679Z,11.70
2022-10-10T01:25:13.563Z,11.80
2022-10-10T01:27:46.166Z,12.40
2022-10-10T01:30:14.650Z,11.80
2022-10-10T01:33:00.894Z,11.80
2022-10-10T01:35:27.491Z,11.70
2022-10-10T01:38:06.299Z,11.80
2022-10-10T01:40:51.680Z,11.80
2022-10-10T01:43:18.282Z,11.90
2022-10-10T01:45:49.350Z,11.90
2022-10-10T01:48:17.300Z,11.90
2022-10-10T01:50:49.751Z,11.90
2022-10-10T01:53:48.875Z,12.00
2022-10-10T01:56:15.642Z,12.00
2022-10-10T01:59:08.576Z,12.00
2022-10-10T02:01:40.386Z,11.90
2022-10-10T02:04:06.927Z,11.80
2022-10-10T02:06:42.450Z,11.80
2022-10-10T02:09:11.437Z,11.90
2022-10-10T02:11:39.222Z,12.00
2022-10-10T02:14:12.015Z,11.90
2022-10-10T02:16:39.831Z,11.70
2022-10-10T02:19:10.689Z,11.80
2022-10-10T02:21:37.627Z,11.90
2022-10-10T02:24:05.797Z,11.90
2022-10-10T02:26:33.457Z,12.00
2022-10-10T02:29:03.943Z,12.00
2022-10-10T02:31:41.815Z,11.80
2022-10-10T02:34:18.898Z,11.80
2022-10-10T02:36:49.470Z,11.80
2022-10-10T02:39:16.692Z,11.90
2022-10-10T02:41:45.626Z,11.90
2022-10-10T02:44:13.402Z,11.80
2022-10-10T02:46:40.352Z,11.70
2022-10-10T02:49:10.587Z,11.70
2022-10-10T02:51:38.273Z,11.70
2022-10-10T02:54:05.192Z,11.70
2022-10-10T02:56:31.763Z,11.70
2022-10-10T02:58:58.340Z,11.80
2022-10-10T03:01:24.947Z,11.80
2022-10-10T03:03:51.522Z,11.90
2022-10-10T03:06:18.114Z,11.80
2022-10-10T03:08:44.652Z,11.80
2022-10-10T03:11:11.414Z,11.70
2022-10-10T03:13:37.959Z,11.70
2022-10-10T03:16:06.625Z,11.80
2022-10-10T03:18:33.188Z,11.80
2022-10-10T03:20:59.746Z,11.80
2022-10-10T03:23:26.405Z,11.80
2022-10-10T03:25:53.015Z,11.80
2022-10-10T03:28:20.066Z,11.90
2022-10-10T03:30:46.788Z,12.00
2022-10-10T03:33:13.658Z,12.00
2022-10-10T03:35:40.311Z,12.00
2022-10-10T03:38:06.936Z,12.00
2022-10-10T03:40:33.722Z,11.90
2022-10-10T03:43:00.268Z,11.80
2022-10-10T03:45:26.840Z,11.90
2022-10-10T03:47:53.383Z,11.90
2022-10-10T03:50:20.211Z,11.80
2022-10-10T03:52:46.787Z,11.70
2022-10-10T03:55:13.433Z,11.70
2022-10-10T03:57:40.135Z,11.70
2022-10-10T04:00:07.036Z,11.70
2022-10-10T04:02:33.597Z,11.70
2022-10-10T04:05:00.194Z,11.70
2022-10-10T04:07:26.925Z,11.70
2022-10-10T04:09:53.998Z,11.60
2022-10-10T04:12:20.533Z,11.60
2022-10-10T04:14:47.230Z,11.70
2022-10-10T04:17:13.816Z,11.70
2022-10-10T04:19:40.425Z,11.80
2022-10-10T04:22:10.990Z,11.70
2022-10-10T04:24:37.925Z,11.70
2022-10-10T04:27:04.490Z,11.60
2022-10-10T04:29:31.159Z,11.60
2022-10-10T04:31:57.749Z,11.40
2022-10-10T04:34:24.330Z,11.40
2022-10-10T04:36:50.885Z,11.40
2022-10-10T04:39:17.465Z,11.30
2022-10-10T04:41:44.094Z,11.30
2022-10-10T04:44:10.633Z,11.20
2022-10-10T04:46:37.237Z,11.10
2022-10-10T04:49:03.788Z,11.00
2022-10-10T04:51:30.347Z,11.00
2022-10-10T04:53:56.898Z,10.90
2022-10-10T04:56:24.851Z,10.70
2022-10-10T04:58:51.398Z,10.60
2022-10-10T05:01:17.981Z,10.60
2022-10-10T05:03:44.546Z,10.60
2022-10-10T05:06:11.101Z,10.50
2022-10-10T05:08:37.919Z,10.50
2022-10-10T05:11:04.542Z,10.50
2022-10-10T05:13:31.101Z,10.50
2022-10-10T05:15:57.707Z,10.50
2022-10-10T05:18:24.322Z,10.60
2022-10-10T05:20:50.953Z,10.50
2022-10-10T05:23:17.545Z,10.50
2022-10-10T05:25:53.206Z,10.50
2022-10-10T05:28:19.838Z,10.50
2022-10-10T05:30:46.511Z,10.50
2022-10-10T05:33:13.064Z,10.50
2022-10-10T05:35:39.771Z,10.50
2022-10-10T05:38:06.401Z,10.40
2022-10-10T05:40:33.039Z,10.40
2022-10-10T05:42:59.623Z,10.40
2022-10-10T05:45:26.219Z,10.30
2022-10-10T05:47:52.782Z,10.30
2022-10-10T05:50:28.613Z,10.30
2022-10-10T05:52:55.432Z,10.30
2022-10-10T05:55:22.040Z,10.30
2022-10-10T05:57:48.849Z,10.30
2022-10-10T06:00:15.471Z,10.30
2022-10-10T06:02:42.033Z,10.30
2022-10-10T06:05:08.810Z,10.30
2022-10-10T06:07:52.304Z,10.40
2022-10-10T06:10:22.386Z,10.50
2022-10-10T06:12:49.381Z,10.50
2022-10-10T06:15:16.273Z,10.60
2022-10-10T06:17:42.857Z,10.70
2022-10-10T06:20:09.828Z,10.80
2022-10-10T06:22:36.709Z,10.90
2022-10-10T06:25:03.367Z,11.00
2022-10-10T06:27:29.930Z,11.20
2022-10-10T06:29:56.495Z,11.40
2022-10-10T06:32:23.058Z,11.50
2022-10-10T06:34:49.754Z,11.60
2022-10-10T06:37:16.458Z,11.70
2022-10-10T06:39:43.115Z,11.80
2022-10-10T06:42:09.822Z,12.00
2022-10-10T06:44:36.361Z,12.10
2022-10-10T06:47:02.951Z,12.20
2022-10-10T06:49:29.713Z,12.30
2022-10-10T06:51:56.311Z,12.50
2022-10-10T06:54:22.973Z,12.50
2022-10-10T06:56:49.645Z,12.60
2022-10-10T06:59:16.290Z,12.70
2022-10-10T07:01:43.026Z,12.80
2022-10-10T07:04:10.131Z,12.90
2022-10-10T07:06:37.112Z,13.00
2022-10-10T07:09:03.705Z,13.00
2022-10-10T07:11:30.270Z,13.20
2022-10-10T07:13:56.962Z,14.50
2022-10-10T07:16:23.669Z,13.30
2022-10-10T07:18:50.409Z,13.40
2022-10-10T07:21:16.994Z,13.40
2022-10-10T07:23:43.688Z,13.50
2022-10-10T07:26:11.780Z,13.60
2022-10-10T07:28:39.060Z,13.60
2022-10-10T07:31:06.897Z,13.70
2022-10-10T07:33:34.476Z,13.70
2022-10-10T07:36:01.089Z,13.80
2022-10-10T07:38:27.754Z,13.90
2022-10-10T07:40:54.367Z,14.00
2022-10-10T07:43:20.941Z,15.20
2022-10-10T07:45:47.508Z,14.20
2022-10-10T07:48:14.343Z,14.30
2022-10-10T07:50:42.386Z,15.10
2022-10-10T07:53:09.506Z,14.60
2022-10-10T07:55:38.697Z,14.80
2022-10-10T07:58:05.401Z,14.60
2022-10-10T08:00:33.267Z,14.90
2022-10-10T08:02:59.856Z,14.60
2022-10-10T08:05:26.427Z,14.80
2022-10-10T08:07:53.614Z,15.00
2022-10-10T08:10:20.655Z,15.30
2022-10-10T08:12:47.216Z,16.20
2022-10-10T08:15:13.989Z,15.50
2022-10-10T08:17:40.595Z,16.00
2022-10-10T08:20:07.482Z,16.10
2022-10-10T08:22:34.126Z,16.30
2022-10-10T08:25:00.703Z,16.50
2022-10-10T08:27:27.684Z,16.60
2022-10-10T08:29:54.229Z,16.90
2022-10-10T08:32:20.799Z,17.10
2022-10-10T08:34:47.389Z,17.20
2022-10-10T08:37:13.945Z,17.40
2022-10-10T08:39:40.491Z,17.50
2022-10-10T08:42:07.264Z,18.70
2022-10-10T08:44:39.606Z,18.40
2022-10-10T08:47:12.006Z,18.20
2022-10-10T08:49:47.537Z,18.60
2022-10-10T08:52:14.077Z,18.90
2022-10-10T08:54:41.334Z,19.10
2022-10-10T08:57:14.230Z,19.30
2022-10-10T08:59:42.048Z,19.40
2022-10-10T09:02:43.666Z,19.40
2022-10-10T09:05:18.038Z,19.30
2022-10-10T09:08:03.510Z,19.30
2022-10-10T09:10:30.038Z,19.10
2022-10-10T09:13:01.410Z,19.10
2022-10-10T09:15:34.068Z,19.40
2022-10-10T09:18:06.607Z,19.50
2022-10-10T09:20:51.952Z,19.50
2022-10-10T09:23:25.095Z,19.70
2022-10-10T09:26:00.081Z,20.10
2022-10-10T09:28:35.956Z,20.50
2022-10-10T09:31:03.010Z,21.00
2022-10-10T09:33:33.146Z,21.40
2022-10-10T09:36:01.182Z,21.70
2022-10-10T09:38:27.876Z,21.90
2022-10-10T09:40:58.335Z,21.70
2022-10-10T09:43:29.243Z,21.50
2022-10-10T09:45:59.052Z,21.20
2022-10-10T09:48:32.832Z,21.40
2022-10-10T09:51:00.355Z,21.70
2022-10-10T09:53:27.211Z,22.30
2022-10-10T09:55:54.074Z,22.80
2022-10-10T09:58:43.692Z,23.00
2022-10-10T10:01:12.050Z,23.30
2022-10-10T10:03:38.711Z,23.20
2022-10-10T10:06:05.396Z,22.50
2022-10-10T10:08:34.085Z,22.30
2022-10-10T10:11:02.120Z,22.30
2022-10-10T10:13:33.845Z,23.10
2022-10-10T10:16:03.934Z,24.10
2022-10-10T10:18:30.894Z,24.30
2022-10-10T10:21:09.750Z,25.10
2022-10-10T10:23:56.612Z,25.80
2022-10-10T10:26:23.227Z,26.70
2022-10-10T10:28:50.608Z,27.40
2022-10-10T10:31:20.070Z,27.20
2022-10-10T10:33:55.959Z,26.70
2022-10-10T10:36:31.067Z,25.90
2022-10-10T10:39:12.164Z,25.50
2022-10-10T10:41:45.060Z,25.00
2022-10-10T10:44:16.558Z,24.60
2022-10-10T10:46:55.041Z,24.40
2022-10-10T10:49:25.625Z,24.60
2022-10-10T10:52:11.407Z,24.20
2022-10-10T10:54:41.202Z,24.30
2022-10-10T11:00:22.181Z,24.40
2022-10-10T11:03:09.669Z,24.30
2022-10-10T11:05:48.851Z,24.90
2022-10-10T11:08:38.915Z,25.40
2022-10-10T11:11:05.485Z,26.10
2022-10-10T11:13:54.258Z,26.90
2022-10-10T11:16:46.923Z,27.00
2022-10-10T11:19:14.417Z,27.80
2022-10-10T11:21:43.478Z,29.40
2022-10-10T11:24:12.287Z,30.50
2022-10-10T11:26:47.698Z,31.50
2022-10-10T11:29:22.929Z,31.70
2022-10-10T11:31:56.690Z,32.00
2022-10-10T11:34:38.340Z,32.30
2022-10-10T11:37:08.772Z,32.10
2022-10-10T11:39:50.555Z,31.50
2022-10-10T11:42:22.700Z,31.10
2022-10-10T11:45:04.226Z,30.80
2022-10-10T11:47:49.352Z,30.10
2022-10-10T11:50:21.495Z,29.40
2022-10-10T11:52:54.239Z,28.20
2022-10-10T11:55:31.328Z,26.50
2022-10-10T11:58:00.645Z,25.10
2022-10-10T12:00:28.592Z,24.30
2022-10-10T12:02:56.547Z,23.50
2022-10-10T12:05:27.359Z,23.00
2022-10-10T12:07:53.897Z,22.80
2022-10-10T12:10:23.487Z,22.60
2022-10-10T12:12:52.605Z,22.70
2022-10-10T12:15:41.920Z,23.00
2022-10-10T12:18:22.577Z,22.80
2022-10-10T12:20:49.133Z,22.80
2022-10-10T12:23:16.617Z,22.60
2022-10-10T12:25:45.591Z,22.10
2022-10-10T12:28:15.407Z,22.30
2022-10-10T12:30:58.506Z,22.30
2022-10-10T12:33:28.286Z,22.20
2022-10-10T12:35:54.935Z,22.20
2022-10-10T12:38:23.456Z,22.20
2022-10-10T12:41:05.668Z,22.50
2022-10-10T12:43:38.329Z,22.40
2022-10-10T12:46:14.514Z,22.20
2022-10-10T12:48:41.275Z,22.50
2022-10-10T12:51:16.949Z,22.50
2022-10-10T12:53:47.574Z,22.50
2022-10-10T12:56:14.228Z,22.30
2022-10-10T12:58:41.017Z,22.30
2022-10-10T13:01:18.592Z,22.30
2022-10-10T13:03:46.580Z,22.30
2022-10-10T13:06:30.407Z,22.30
2022-10-10T13:08:57.919Z,21.90
2022-10-10T13:11:24.478Z,22.10
2022-10-10T13:13:52.302Z,22.80
2022-10-10T13:16:20.345Z,21.90
2022-10-10T13:18:50.051Z,21.90
2022-10-10T13:21:21.469Z,22.10
2022-10-10T13:26:43.276Z,22.20
2022-10-10T13:29:28.889Z,21.90
2022-10-10T13:31:58.695Z,22.10
2022-10-10T13:34:27.443Z,22.10
2022-10-10T13:36:55.769Z,22.20
2022-10-10T13:39:22.468Z,22.20
2022-10-10T13:41:49.295Z,22.20
2022-10-10T13:44:23.411Z,22.10
2022-10-10T13:46:50.390Z,22.10
2022-10-10T13:49:20.154Z,22.00
2022-10-10T13:51:47.889Z,22.10
2022-10-10T13:54:37.873Z,21.80
2022-10-10T13:57:06.181Z,21.90
2022-10-10T13:59:34.090Z,21.90
2022-10-10T14:02:02.100Z,22.00
2022-10-10T14:04:32.785Z,21.90
2022-10-10T14:06:59.511Z,21.90
2022-10-10T14:09:32.020Z,21.90
2022-10-10T14:12:00.103Z,21.90
2022-10-10T14:14:32.471Z,21.80
2022-10-10T14:16:59.001Z,21.80
2022-10-10T14:19:25.770Z,22.10
2022-10-10T14:21:52.341Z,21.60
2022-10-10T14:24:18.885Z,21.60
2022-10-10T14:26:45.462Z,21.60
2022-10-10T14:29:15.955Z,21.70
2022-10-10T14:31:43.695Z,21.50
2022-10-10T14:34:12.823Z,22.40
2022-10-10T14:36:41.990Z,22.30
2022-10-10T14:39:10.130Z,21.60
2022-10-10T14:41:36.670Z,21.60
2022-10-10T14:44:03.245Z,21.60
2022-10-10T14:46:29.811Z,21.60
2022-10-10T14:48:56.408Z,21.40
2022-10-10T14:51:33.255Z,21.50
2022-10-10T14:54:11.974Z,21.40
2022-10-10T14:57:09.109Z,21.30
2022-10-10T14:59:46.389Z,21.40
2022-10-10T15:02:14.775Z,21.20
2022-10-10T15:04:41.477Z,21.30
2022-10-10T15:07:13.543Z,21.10
2022-10-10T15:09:51.595Z,21.10
2022-10-10T15:12:23.558Z,21.00
2022-10-10T15:14:50.290Z,20.80
2022-10-10T15:17:16.965Z,20.80
2022-10-10T15:19:44.941Z,20.70
2022-10-10T15:22:11.543Z,20.60
2022-10-10T15:24:38.097Z,20.50
2022-10-10T15:27:04.820Z,20.50
2022-10-10T15:29:31.718Z,20.40
2022-10-10T15:31:58.725Z,20.30
2022-10-10T15:34:25.345Z,20.50
2022-10-10T15:36:52.100Z,20.80
2022-10-10T15:39:18.649Z,20.90
2022-10-10T15:41:45.402Z,20.20
2022-10-10T15:44:16.221Z,20.10
2022-10-10T15:46:43.683Z,20.00
2022-10-10T15:49:10.410Z,20.00
2022-10-10T15:51:36.989Z,19.90
2022-10-10T15:54:03.706Z,19.80
2022-10-10T15:56:30.710Z,19.80
2022-10-10T15:58:58.029Z,19.60
2022-10-10T16:01:25.604Z,19.60
2022-10-10T16:03:52.461Z,19.50
2022-10-10T16:06:19.759Z,19.60
2022-10-10T16:08:55.715Z,19.40
2022-10-10T16:11:30.823Z,19.30
2022-10-10T16:13:57.569Z,19.20
2022-10-10T16:16:24.646Z,19.20
2022-10-10T16:18:51.285Z,19.60
2022-10-10T16:21:19.499Z,18.80
2022-10-10T16:23:47.082Z,18.90
2022-10-10T16:26:15.705Z,18.80
2022-10-10T16:28:42.650Z,18.80
2022-10-10T16:31:10.573Z,18.60
2022-10-10T16:33:37.976Z,18.60
2022-10-10T16:36:08.670Z,18.50
2022-10-10T16:38:35.463Z,18.50
2022-10-10T16:41:06.068Z,18.40
2022-10-10T16:43:33.087Z,18.40
2022-10-10T16:46:03.297Z,18.30
2022-10-10T16:48:33.659Z,18.20
2022-10-10T16:51:07.224Z,18.20
2022-10-10T16:53:34.256Z,18.10
2022-10-10T16:56:01.995Z,18.10
2022-10-10T16:58:29.473Z,18.00
2022-10-10T17:00:56.139Z,17.90
2022-10-10T17:03:24.285Z,17.90
2022-10-10T17:06:00.440Z,17.90
2022-10-10T17:08:26.993Z,17.90
2022-10-10T17:10:53.763Z,17.80
2022-10-10T17:13:20.307Z,18.40
2022-10-10T17:15:47.220Z,17.70
2022-10-10T17:18:13.932Z,17.70
2022-10-10T17:20:41.112Z,17.60
2022-10-10T17:23:07.732Z,17.60
2022-10-10T17:25:34.431Z,17.50
2022-10-10T17:28:01.014Z,17.50
2022-10-10T17:30:27.622Z,17.40
2022-10-10T17:32:54.197Z,17.40
2022-10-10T17:35:20.818Z,17.30
2022-10-10T17:37:47.355Z,17.20
2022-10-10T17:40:13.889Z,17.90
2022-10-10T17:42:40.467Z,18.10
2022-10-10T17:45:07.369Z,17.10
2022-10-10T17:47:34.132Z,17.00
2022-10-10T17:50:00.869Z,16.90
2022-10-10T17:52:27.521Z,16.90
2022-10-10T17:54:54.103Z,16.80
2022-10-10T17:57:20.695Z,17.60
2022-10-10T17:59:47.419Z,16.80
2022-10-10T18:02:18.116Z,16.80
2022-10-10T18:04:44.944Z,16.80
2022-10-10T18:07:12.708Z,16.90
2022-10-10T18:09:39.261Z,16.70
2022-10-10T18:12:07.606Z,16.70
2022-10-10T18:14:34.310Z,16.70
2022-10-10T18:17:00.960Z,17.10
2022-10-10T18:19:27.500Z,16.60
2022-10-10T18:21:54.049Z,16.60
2022-10-10T18:24:20.654Z,16.40
2022-10-10T18:26:47.228Z,16.50
2022-10-10T18:29:14.513Z,16.50
2022-10-10T18:31:41.155Z,16.30
2022-10-10T18:34:07.714Z,17.40
2022-10-10T18:36:35.714Z,16.60
2022-10-10T18:39:04.018Z,16.00
2022-10-10T18:41:34.359Z,15.50
2022-10-10T18:44:05.818Z,15.90
2022-10-10T18:46:32.888Z,15.80
2022-10-10T18:49:00.401Z,15.70
2022-10-10T18:51:29.487Z,15.70
2022-10-10T18:53:58.486Z,15.60
2022-10-10T18:56:25.124Z,15.50
2022-10-10T18:58:56.921Z,15.40
2022-10-10T19:01:25.372Z,15.30
2022-10-10T19:03:52.567Z,15.60
2022-10-10T19:06:19.157Z,15.10
2022-10-10T19:08:45.738Z,15.00
2022-10-10T19:11:19.213Z,14.90
2022-10-10T19:13:45.895Z,14.90
2022-10-10T19:16:12.481Z,14.80
2022-10-10T19:18:39.153Z,15.50
2022-10-10T19:21:06.274Z,14.50
2022-10-10T19:23:33.355Z,14.60
2022-10-10T19:26:04.391Z,14.50
2022-10-10T19:28:31.781Z,14.40
2022-10-10T19:31:02.654Z,14.40
2022-10-10T19:33:29.457Z,14.30
2022-10-10T19:35:55.997Z,14.20
2022-10-10T19:38:22.555Z,14.20
2022-10-10T19:40:49.513Z,14.30
2022-10-10T19:43:16.769Z,14.10
2022-10-10T19:45:44.777Z,14.00
2022-10-10T19:48:11.344Z,13.90
2022-10-10T19:50:38.828Z,14.60
2022-10-10T19:53:05.893Z,13.80
2022-10-10T19:55:32.446Z,13.80
2022-10-10T19:57:58.999Z,13.70
2022-10-10T20:00:25.624Z,13.70
2022-10-10T20:02:52.225Z,13.60
2022-10-10T20:05:18.891Z,13.40
2022-10-10T20:07:45.532Z,13.50
2022-10-10T20:10:12.774Z,13.40
2022-10-10T20:12:39.340Z,13.40
2022-10-10T20:15:06.122Z,13.30
2022-10-10T20:17:32.720Z,13.30
2022-10-10T20:19:59.787Z,13.30
2022-10-10T20:22:26.340Z,13.20
2022-10-10T20:24:53.028Z,13.10
2022-10-10T20:27:19.582Z,13.10
2022-10-10T20:29:46.153Z,13.10
2022-10-10T20:32:12.874Z,13.00
2022-10-10T20:34:39.521Z,13.00
2022-10-10T20:37:06.197Z,13.00
2022-10-10T20:39:32.773Z,15.00
2022-10-10T20:41:59.522Z,12.90
2022-10-10T20:44:26.233Z,12.90
2022-10-10T20:46:52.836Z,12.80
2022-10-10T20:49:20.800Z,12.80
2022-10-10T20:51:49.519Z,12.80
2022-10-10T20:54:17.499Z,12.70
2022-10-10T20:56:48.494Z,12.70
2022-10-10T20:59:15.581Z,12.70
2022-10-10T21:01:42.332Z,12.60
2022-10-10T21:04:09.687Z,12.60
2022-10-10T21:06:36.667Z,12.60
2022-10-10T21:09:05.345Z,12.50
2022-10-10T21:11:32.458Z,12.40
2022-10-10T21:13:59.820Z,12.40
2022-10-10T21:16:28.108Z,12.40
2022-10-10T21:18:57.818Z,12.30
2022-10-10T21:21:25.482Z,12.40
2022-10-10T21:23:56.005Z,12.30
2022-10-10T21:26:24.095Z,12.30
2022-10-10T21:28:50.891Z,12.20
2022-10-10T21:31:22.356Z,12.20
2022-10-10T21:33:49.030Z,12.10
2022-10-10T21:36:16.594Z,12.20
2022-10-10T21:38:43.255Z,12.10
2022-10-10T21:41:11.880Z,12.10
2022-10-10T21:43:39.252Z,12.00
2022-10-10T21:46:10.547Z,12.00
2022-10-10T21:48:37.325Z,12.00
2022-10-10T21:51:04.069Z,11.90
2022-10-10T21:53:31.306Z,11.90
2022-10-10T21:55:58.269Z,11.90
2022-10-10T21:58:24.868Z,11.80
2022-10-10T22:00:51.466Z,11.80
2022-10-10T22:03:18.105Z,11.80
2022-10-10T22:05:44.808Z,11.80
2022-10-10T22:08:11.601Z,11.80
2022-10-10T22:10:40.139Z,11.70
2022-10-10T22:13:06.745Z,11.80
2022-10-10T22:15:33.587Z,11.70
2022-10-10T22:18:00.178Z,11.70
2022-10-10T22:20:26.750Z,11.70
2022-10-10T22:22:53.313Z,11.70
2022-10-10T22:25:19.903Z,11.70
2022-10-10T22:27:46.491Z,11.70
2022-10-10T22:30:13.560Z,11.70
2022-10-10T22:32:40.192Z,11.60
2022-10-10T22:35:06.980Z,11.60
2022-10-10T22:37:33.565Z,11.60
2022-10-10T22:40:00.130Z,11.50
2022-10-10T22:42:26.689Z,11.60
2022-10-10T22:44:53.286Z,11.50
2022-10-10T22:47:19.988Z,11.50
2022-10-10T22:49:46.552Z,11.50
2022-10-10T22:52:13.125Z,11.40
2022-10-10T22:54:39.669Z,11.50
2022-10-10T22:57:06.228Z,11.50
2022-10-10T22:59:32.791Z,11.50
2022-10-10T23:01:59.523Z,11.60
2022-10-10T23:04:26.145Z,11.70
2022-10-10T23:06:52.707Z,11.80
2022-10-10T23:09:19.400Z,11.90
2022-10-10T23:11:45.964Z,11.90
2022-10-10T23:14:12.618Z,12.00
2022-10-10T23:16:40.859Z,12.00
2022-10-10T23:19:07.677Z,12.10
2022-10-10T23:21:34.285Z,12.10
2022-10-10T23:24:00.847Z,12.10
2022-10-10T23:26:27.472Z,12.10
2022-10-10T23:28:54.099Z,12.10
2022-10-10T23:31:20.862Z,12.00
2022-10-10T23:33:47.607Z,12.00
2022-10-10T23:36:14.710Z,12.00
2022-10-10T23:38:41.943Z,11.90
2022-10-10T23:41:09.503Z,11.90
2022-10-10T23:43:36.513Z,11.80
2022-10-10T23:46:03.660Z,11.80
2022-10-10T23:48:30.684Z,11.80
2022-10-10T23:50:57.237Z,11.80
2022-10-10T23:53:23.987Z,11.80
2022-10-10T23:55:50.547Z,11.90
2022-10-10T23:58:17.110Z,11.90
